sensor_id;sensor_type;location;lat;lon;timestamp;P1;durP1;ratioP1;P2;durP2;ratioP2
13163;SDS011;6647;53.688;10.746;2023-05-02T00:00:21;12.73;;;8.15;;
13163;SDS011;6647;53.688;10.746;2023-05-02T00:01:42;17.73;;;9.43;;
13163;SDS011;6647;53.688;10.746;2023-05-02T00:03:03;19.00;;;8.32;;
13163;SDS011;6647;53.688;10.746;2023-05-02T00:04:25;14.30;;;9.25;;
13163;SDS011;6647;53.688;10.746;2023-05-02T00:05:46;15.85;;;8.13;;
13163;SDS011;6647;53.688;10.746;2023-05-02T00:07:07;16.42;;;8.20;;
13163;SDS011;6647;53.688;10.746;2023-05-02T00:08:28;12.80;;;8.30;;
13163;SDS011;6647;53.688;10.746;2023-05-02T00:09:49;16.42;;;9.95;;
13163;SDS011;6647;53.688;10.746;2023-05-02T00:11:09;16.55;;;10.20;;
13163;SDS011;6647;53.688;10.746;2023-05-02T00:12:30;16.33;;;9.90;;
13163;SDS011;6647;53.688;10.746;2023-05-02T00:13:52;16.38;;;9.65;;
13163;SDS011;6647;53.688;10.746;2023-05-02T00:15:13;15.23;;;10.73;;
13163;SDS011;6647;53.688;10.746;2023-05-02T00:16:33;19.48;;;10.90;;
13163;SDS011;6647;53.688;10.746;2023-05-02T00:17:54;13.75;;;9.80;;
13163;SDS011;6647;53.688;10.746;2023-05-02T00:19:15;32.78;;;11.10;;
13163;SDS011;6647;53.688;10.746;2023-05-02T00:20:38;15.57;;;8.75;;
13163;SDS011;6647;53.688;10.746;2023-05-02T00:22:00;13.18;;;9.05;;
13163;SDS011;6647;53.688;10.746;2023-05-02T00:23:21;17.75;;;9.88;;
13163;SDS011;6647;53.688;10.746;2023-05-02T00:24:41;19.88;;;9.75;;
13163;SDS011;6647;53.688;10.746;2023-05-02T00:26:02;15.00;;;9.38;;
13163;SDS011;6647;53.688;10.746;2023-05-02T00:27:29;18.50;;;10.05;;
13163;SDS011;6647;53.688;10.746;2023-05-02T00:28:50;21.38;;;10.45;;
13163;SDS011;6647;53.688;10.746;2023-05-02T00:30:11;20.98;;;10.40;;
13163;SDS011;6647;53.688;10.746;2023-05-02T00:31:33;16.83;;;11.05;;
13163;SDS011;6647;53.688;10.746;2023-05-02T00:32:55;22.48;;;10.82;;
13163;SDS011;6647;53.688;10.746;2023-05-02T00:34:15;22.00;;;12.60;;
13163;SDS011;6647;53.688;10.746;2023-05-02T00:35:37;21.42;;;11.25;;
13163;SDS011;6647;53.688;10.746;2023-05-02T00:36:58;18.02;;;11.77;;
13163;SDS011;6647;53.688;10.746;2023-05-02T00:38:19;22.58;;;12.63;;
13163;SDS011;6647;53.688;10.746;2023-05-02T00:39:39;30.25;;;15.07;;
13163;SDS011;6647;53.688;10.746;2023-05-02T00:41:00;26.33;;;14.82;;
13163;SDS011;6647;53.688;10.746;2023-05-02T00:42:21;22.48;;;14.38;;
13163;SDS011;6647;53.688;10.746;2023-05-02T00:43:42;28.02;;;14.75;;
13163;SDS011;6647;53.688;10.746;2023-05-02T00:45:03;26.08;;;14.77;;
13163;SDS011;6647;53.688;10.746;2023-05-02T00:46:25;21.48;;;15.50;;
13163;SDS011;6647;53.688;10.746;2023-05-02T00:47:46;25.02;;;16.25;;
13163;SDS011;6647;53.688;10.746;2023-05-02T00:49:08;26.77;;;15.35;;
13163;SDS011;6647;53.688;10.746;2023-05-02T00:50:29;27.55;;;17.08;;
13163;SDS011;6647;53.688;10.746;2023-05-02T00:51:52;28.08;;;17.60;;
13163;SDS011;6647;53.688;10.746;2023-05-02T00:53:13;34.35;;;18.67;;
13163;SDS011;6647;53.688;10.746;2023-05-02T00:54:36;32.28;;;19.48;;
13163;SDS011;6647;53.688;10.746;2023-05-02T00:55:58;27.60;;;18.70;;
13163;SDS011;6647;53.688;10.746;2023-05-02T00:57:21;37.30;;;20.42;;
13163;SDS011;6647;53.688;10.746;2023-05-02T00:58:42;35.28;;;20.63;;
13163;SDS011;6647;53.688;10.746;2023-05-02T01:00:04;32.53;;;20.30;;
13163;SDS011;6647;53.688;10.746;2023-05-02T01:01:38;38.88;;;23.17;;
13163;SDS011;6647;53.688;10.746;2023-05-02T01:03:37;38.17;;;21.30;;
13163;SDS011;6647;53.688;10.746;2023-05-02T01:05:27;31.50;;;20.40;;
13163;SDS011;6647;53.688;10.746;2023-05-02T01:08:21;40.33;;;22.08;;
13163;SDS011;6647;53.688;10.746;2023-05-02T01:11:43;36.33;;;21.80;;
13163;SDS011;6647;53.688;10.746;2023-05-02T01:13:13;39.35;;;22.08;;
13163;SDS011;6647;53.688;10.746;2023-05-02T01:14:43;38.65;;;21.98;;
13163;SDS011;6647;53.688;10.746;2023-05-02T01:16:06;37.65;;;21.00;;
13163;SDS011;6647;53.688;10.746;2023-05-02T01:17:29;39.47;;;24.08;;
13163;SDS011;6647;53.688;10.746;2023-05-02T01:18:52;30.27;;;20.75;;
13163;SDS011;6647;53.688;10.746;2023-05-02T01:20:16;40.53;;;21.83;;
13163;SDS011;6647;53.688;10.746;2023-05-02T01:21:39;33.65;;;20.38;;
13163;SDS011;6647;53.688;10.746;2023-05-02T01:23:02;32.78;;;21.08;;
13163;SDS011;6647;53.688;10.746;2023-05-02T01:24:38;36.28;;;21.15;;
13163;SDS011;6647;53.688;10.746;2023-05-02T01:26:25;36.85;;;21.50;;
13163;SDS011;6647;53.688;10.746;2023-05-02T01:29:49;34.33;;;21.95;;
13163;SDS011;6647;53.688;10.746;2023-05-02T01:31:12;42.85;;;24.63;;
13163;SDS011;6647;53.688;10.746;2023-05-02T01:32:34;35.88;;;22.52;;
13163;SDS011;6647;53.688;10.746;2023-05-02T01:33:59;34.75;;;22.30;;
13163;SDS011;6647;53.688;10.746;2023-05-02T01:35:20;39.30;;;23.13;;
13163;SDS011;6647;53.688;10.746;2023-05-02T01:36:44;42.22;;;24.67;;
13163;SDS011;6647;53.688;10.746;2023-05-02T01:38:06;36.60;;;22.45;;
13163;SDS011;6647;53.688;10.746;2023-05-02T01:39:27;44.88;;;25.85;;
13163;SDS011;6647;53.688;10.746;2023-05-02T01:40:50;43.28;;;23.88;;
13163;SDS011;6647;53.688;10.746;2023-05-02T01:42:13;40.50;;;25.73;;
13163;SDS011;6647;53.688;10.746;2023-05-02T01:43:35;46.20;;;27.65;;
13163;SDS011;6647;53.688;10.746;2023-05-02T01:44:58;42.97;;;26.55;;
13163;SDS011;6647;53.688;10.746;2023-05-02T01:46:21;48.45;;;27.67;;
13163;SDS011;6647;53.688;10.746;2023-05-02T01:47:43;43.45;;;25.30;;
13163;SDS011;6647;53.688;10.746;2023-05-02T01:49:05;47.88;;;28.13;;
13163;SDS011;6647;53.688;10.746;2023-05-02T01:50:28;51.00;;;29.15;;
13163;SDS011;6647;53.688;10.746;2023-05-02T01:51:49;47.88;;;28.75;;
13163;SDS011;6647;53.688;10.746;2023-05-02T01:53:11;50.45;;;31.45;;
13163;SDS011;6647;53.688;10.746;2023-05-02T01:54:34;53.88;;;30.48;;
13163;SDS011;6647;53.688;10.746;2023-05-02T01:55:56;52.03;;;31.58;;
13163;SDS011;6647;53.688;10.746;2023-05-02T01:57:19;53.53;;;32.65;;
13163;SDS011;6647;53.688;10.746;2023-05-02T01:58:40;50.35;;;30.27;;
13163;SDS011;6647;53.688;10.746;2023-05-02T02:00:02;54.75;;;29.95;;
13163;SDS011;6647;53.688;10.746;2023-05-02T02:01:25;65.47;;;32.78;;
13163;SDS011;6647;53.688;10.746;2023-05-02T02:02:50;52.10;;;31.15;;
13163;SDS011;6647;53.688;10.746;2023-05-02T02:04:14;52.22;;;32.03;;
13163;SDS011;6647;53.688;10.746;2023-05-02T02:05:36;58.30;;;32.13;;
13163;SDS011;6647;53.688;10.746;2023-05-02T02:07:00;54.90;;;32.55;;
13163;SDS011;6647;53.688;10.746;2023-05-02T02:08:25;59.50;;;33.05;;
13163;SDS011;6647;53.688;10.746;2023-05-02T02:09:46;48.10;;;28.23;;
13163;SDS011;6647;53.688;10.746;2023-05-02T02:11:10;48.38;;;29.80;;
13163;SDS011;6647;53.688;10.746;2023-05-02T02:12:41;47.17;;;29.15;;
13163;SDS011;6647;53.688;10.746;2023-05-02T02:14:08;50.90;;;29.02;;
13163;SDS011;6647;53.688;10.746;2023-05-02T02:15:36;45.40;;;27.13;;
13163;SDS011;6647;53.688;10.746;2023-05-02T02:17:00;51.42;;;30.65;;
13163;SDS011;6647;53.688;10.746;2023-05-02T02:18:23;51.38;;;29.05;;
13163;SDS011;6647;53.688;10.746;2023-05-02T02:19:46;52.30;;;29.80;;
13163;SDS011;6647;53.688;10.746;2023-05-02T02:21:11;49.95;;;29.35;;
13163;SDS011;6647;53.688;10.746;2023-05-02T02:22:38;50.47;;;32.45;;
13163;SDS011;6647;53.688;10.746;2023-05-02T02:24:00;56.90;;;31.55;;
13163;SDS011;6647;53.688;10.746;2023-05-02T02:25:23;56.38;;;32.20;;
13163;SDS011;6647;53.688;10.746;2023-05-02T02:26:46;49.45;;;30.23;;
13163;SDS011;6647;53.688;10.746;2023-05-02T02:28:07;48.78;;;29.45;;
13163;SDS011;6647;53.688;10.746;2023-05-02T02:29:27;53.35;;;31.55;;
13163;SDS011;6647;53.688;10.746;2023-05-02T02:30:48;55.83;;;32.22;;
13163;SDS011;6647;53.688;10.746;2023-05-02T02:32:10;54.67;;;31.45;;
13163;SDS011;6647;53.688;10.746;2023-05-02T02:33:30;48.33;;;28.42;;
13163;SDS011;6647;53.688;10.746;2023-05-02T02:34:52;56.10;;;31.95;;
13163;SDS011;6647;53.688;10.746;2023-05-02T02:37:47;53.42;;;30.13;;
13163;SDS011;6647;53.688;10.746;2023-05-02T02:41:21;50.78;;;28.70;;
13163;SDS011;6647;53.688;10.746;2023-05-02T02:42:54;51.65;;;29.80;;
13163;SDS011;6647;53.688;10.746;2023-05-02T02:46:15;50.03;;;29.00;;
13163;SDS011;6647;53.688;10.746;2023-05-02T02:49:55;47.28;;;27.42;;
13163;SDS011;6647;53.688;10.746;2023-05-02T02:51:45;46.50;;;27.35;;
13163;SDS011;6647;53.688;10.746;2023-05-02T02:53:50;51.40;;;29.85;;
13163;SDS011;6647;53.688;10.746;2023-05-02T02:55:33;48.42;;;28.40;;
13163;SDS011;6647;53.688;10.746;2023-05-02T02:57:06;46.55;;;28.20;;
13163;SDS011;6647;53.688;10.746;2023-05-02T02:58:41;41.67;;;25.92;;
13163;SDS011;6647;53.688;10.746;2023-05-02T03:01:31;39.90;;;24.42;;
13163;SDS011;6647;53.688;10.746;2023-05-02T03:02:53;44.95;;;24.50;;
13163;SDS011;6647;53.688;10.746;2023-05-02T03:04:15;39.15;;;24.83;;
13163;SDS011;6647;53.688;10.746;2023-05-02T03:05:41;38.03;;;22.90;;
13163;SDS011;6647;53.688;10.746;2023-05-02T03:07:03;32.25;;;20.23;;
13163;SDS011;6647;53.688;10.746;2023-05-02T03:08:24;32.40;;;20.08;;
13163;SDS011;6647;53.688;10.746;2023-05-02T03:09:46;32.28;;;18.80;;
13163;SDS011;6647;53.688;10.746;2023-05-02T03:11:07;31.88;;;20.88;;
13163;SDS011;6647;53.688;10.746;2023-05-02T03:12:28;27.52;;;17.42;;
13163;SDS011;6647;53.688;10.746;2023-05-02T03:13:49;21.58;;;14.35;;
13163;SDS011;6647;53.688;10.746;2023-05-02T03:15:17;20.92;;;13.90;;
13163;SDS011;6647;53.688;10.746;2023-05-02T03:16:43;23.15;;;13.95;;
13163;SDS011;6647;53.688;10.746;2023-05-02T03:18:04;22.98;;;13.52;;
13163;SDS011;6647;53.688;10.746;2023-05-02T03:19:25;20.80;;;13.30;;
13163;SDS011;6647;53.688;10.746;2023-05-02T03:20:46;17.45;;;12.75;;
13163;SDS011;6647;53.688;10.746;2023-05-02T03:22:07;18.48;;;12.25;;
13163;SDS011;6647;53.688;10.746;2023-05-02T03:23:28;13.75;;;9.80;;
13163;SDS011;6647;53.688;10.746;2023-05-02T03:24:49;8.00;;;6.15;;
13163;SDS011;6647;53.688;10.746;2023-05-02T03:26:10;9.57;;;6.05;;
13163;SDS011;6647;53.688;10.746;2023-05-02T03:27:31;7.68;;;4.68;;
13163;SDS011;6647;53.688;10.746;2023-05-02T03:28:52;4.43;;;3.42;;
13163;SDS011;6647;53.688;10.746;2023-05-02T03:30:13;3.88;;;3.58;;
13163;SDS011;6647;53.688;10.746;2023-05-02T03:31:34;3.50;;;3.20;;
13163;SDS011;6647;53.688;10.746;2023-05-02T03:32:55;5.38;;;2.80;;
13163;SDS011;6647;53.688;10.746;2023-05-02T03:34:16;3.88;;;3.00;;
13163;SDS011;6647;53.688;10.746;2023-05-02T03:35:37;2.35;;;2.05;;
13163;SDS011;6647;53.688;10.746;2023-05-02T03:36:58;2.72;;;2.33;;
13163;SDS011;6647;53.688;10.746;2023-05-02T03:38:18;2.20;;;2.10;;
13163;SDS011;6647;53.688;10.746;2023-05-02T03:39:42;3.28;;;2.40;;
13163;SDS011;6647;53.688;10.746;2023-05-02T03:41:03;3.17;;;2.17;;
13163;SDS011;6647;53.688;10.746;2023-05-02T03:42:25;5.30;;;2.10;;
13163;SDS011;6647;53.688;10.746;2023-05-02T03:43:45;5.03;;;2.20;;
13163;SDS011;6647;53.688;10.746;2023-05-02T03:45:06;2.83;;;2.10;;
13163;SDS011;6647;53.688;10.746;2023-05-02T03:46:28;2.47;;;1.95;;
13163;SDS011;6647;53.688;10.746;2023-05-02T03:47:49;3.78;;;2.50;;
13163;SDS011;6647;53.688;10.746;2023-05-02T03:49:10;6.95;;;3.15;;
13163;SDS011;6647;53.688;10.746;2023-05-02T03:50:31;5.35;;;3.10;;
13163;SDS011;6647;53.688;10.746;2023-05-02T03:51:52;7.82;;;2.88;;
13163;SDS011;6647;53.688;10.746;2023-05-02T03:53:13;7.15;;;3.45;;
13163;SDS011;6647;53.688;10.746;2023-05-02T03:54:35;9.55;;;3.90;;
13163;SDS011;6647;53.688;10.746;2023-05-02T03:55:56;11.85;;;4.65;;
13163;SDS011;6647;53.688;10.746;2023-05-02T03:57:17;8.50;;;4.50;;
13163;SDS011;6647;53.688;10.746;2023-05-02T03:58:38;12.30;;;4.78;;
13163;SDS011;6647;53.688;10.746;2023-05-02T03:59:59;8.82;;;5.20;;
13163;SDS011;6647;53.688;10.746;2023-05-02T04:01:20;11.65;;;5.05;;
13163;SDS011;6647;53.688;10.746;2023-05-02T04:02:41;11.35;;;5.63;;
13163;SDS011;6647;53.688;10.746;2023-05-02T04:04:02;21.88;;;4.55;;
13163;SDS011;6647;53.688;10.746;2023-05-02T04:05:23;13.70;;;5.97;;
13163;SDS011;6647;53.688;10.746;2023-05-02T04:06:44;19.60;;;5.32;;
13163;SDS011;6647;53.688;10.746;2023-05-02T04:08:05;12.77;;;5.47;;
13163;SDS011;6647;53.688;10.746;2023-05-02T04:09:25;9.65;;;4.85;;
13163;SDS011;6647;53.688;10.746;2023-05-02T04:10:46;12.85;;;4.82;;
13163;SDS011;6647;53.688;10.746;2023-05-02T04:12:10;13.80;;;5.70;;
13163;SDS011;6647;53.688;10.746;2023-05-02T04:13:31;16.33;;;5.15;;
13163;SDS011;6647;53.688;10.746;2023-05-02T04:14:52;23.30;;;6.55;;
13163;SDS011;6647;53.688;10.746;2023-05-02T04:16:14;24.13;;;7.25;;
13163;SDS011;6647;53.688;10.746;2023-05-02T04:17:35;27.92;;;6.38;;
13163;SDS011;6647;53.688;10.746;2023-05-02T04:18:56;27.67;;;6.80;;
13163;SDS011;6647;53.688;10.746;2023-05-02T04:20:36;27.85;;;7.15;;
13163;SDS011;6647;53.688;10.746;2023-05-02T04:22:01;14.88;;;5.85;;
13163;SDS011;6647;53.688;10.746;2023-05-02T04:23:25;19.85;;;6.88;;
13163;SDS011;6647;53.688;10.746;2023-05-02T04:24:46;26.67;;;7.80;;
13163;SDS011;6647;53.688;10.746;2023-05-02T04:26:16;19.08;;;5.75;;
13163;SDS011;6647;53.688;10.746;2023-05-02T04:27:46;28.17;;;7.20;;
13163;SDS011;6647;53.688;10.746;2023-05-02T04:29:07;25.52;;;5.07;;
13163;SDS011;6647;53.688;10.746;2023-05-02T04:30:37;23.63;;;5.70;;
13163;SDS011;6647;53.688;10.746;2023-05-02T04:32:00;27.20;;;6.05;;
13163;SDS011;6647;53.688;10.746;2023-05-02T04:33:49;24.25;;;5.90;;
13163;SDS011;6647;53.688;10.746;2023-05-02T04:35:10;26.70;;;6.20;;
13163;SDS011;6647;53.688;10.746;2023-05-02T04:36:31;25.02;;;6.22;;
13163;SDS011;6647;53.688;10.746;2023-05-02T04:37:53;18.85;;;5.57;;
13163;SDS011;6647;53.688;10.746;2023-05-02T04:39:14;26.08;;;6.30;;
13163;SDS011;6647;53.688;10.746;2023-05-02T04:40:35;21.25;;;5.85;;
13163;SDS011;6647;53.688;10.746;2023-05-02T04:41:59;15.05;;;5.80;;
13163;SDS011;6647;53.688;10.746;2023-05-02T04:43:26;21.17;;;6.00;;
13163;SDS011;6647;53.688;10.746;2023-05-02T04:44:48;20.75;;;5.65;;
13163;SDS011;6647;53.688;10.746;2023-05-02T04:46:09;22.70;;;5.50;;
13163;SDS011;6647;53.688;10.746;2023-05-02T04:47:30;22.67;;;5.65;;
13163;SDS011;6647;53.688;10.746;2023-05-02T04:48:51;21.58;;;6.50;;
13163;SDS011;6647;53.688;10.746;2023-05-02T04:50:13;31.20;;;5.30;;
13163;SDS011;6647;53.688;10.746;2023-05-02T04:51:34;21.52;;;5.47;;
13163;SDS011;6647;53.688;10.746;2023-05-02T04:52:55;12.25;;;4.75;;
13163;SDS011;6647;53.688;10.746;2023-05-02T04:54:16;23.42;;;4.93;;
13163;SDS011;6647;53.688;10.746;2023-05-02T04:55:36;23.23;;;6.00;;
13163;SDS011;6647;53.688;10.746;2023-05-02T04:56:57;21.92;;;6.88;;
13163;SDS011;6647;53.688;10.746;2023-05-02T04:58:18;21.25;;;5.28;;
13163;SDS011;6647;53.688;10.746;2023-05-02T04:59:39;16.60;;;4.95;;
13163;SDS011;6647;53.688;10.746;2023-05-02T05:01:00;21.42;;;6.57;;
13163;SDS011;6647;53.688;10.746;2023-05-02T05:02:21;22.75;;;5.88;;
13163;SDS011;6647;53.688;10.746;2023-05-02T05:03:42;27.70;;;7.28;;
13163;SDS011;6647;53.688;10.746;2023-05-02T05:05:12;26.05;;;6.32;;
13163;SDS011;6647;53.688;10.746;2023-05-02T05:06:33;20.30;;;5.35;;
13163;SDS011;6647;53.688;10.746;2023-05-02T05:07:55;22.45;;;5.95;;
13163;SDS011;6647;53.688;10.746;2023-05-02T05:09:23;16.80;;;5.88;;
13163;SDS011;6647;53.688;10.746;2023-05-02T05:10:45;17.10;;;4.60;;
13163;SDS011;6647;53.688;10.746;2023-05-02T05:12:06;28.23;;;5.22;;
13163;SDS011;6647;53.688;10.746;2023-05-02T05:13:27;30.67;;;6.63;;
13163;SDS011;6647;53.688;10.746;2023-05-02T05:14:48;16.67;;;5.00;;
13163;SDS011;6647;53.688;10.746;2023-05-02T05:16:09;28.90;;;6.30;;
13163;SDS011;6647;53.688;10.746;2023-05-02T05:17:31;27.70;;;5.15;;
13163;SDS011;6647;53.688;10.746;2023-05-02T05:18:52;30.20;;;5.18;;
13163;SDS011;6647;53.688;10.746;2023-05-02T05:20:13;21.17;;;6.10;;
13163;SDS011;6647;53.688;10.746;2023-05-02T05:21:34;29.55;;;6.03;;
13163;SDS011;6647;53.688;10.746;2023-05-02T05:22:56;28.23;;;5.78;;
13163;SDS011;6647;53.688;10.746;2023-05-02T05:24:16;29.58;;;6.07;;
13163;SDS011;6647;53.688;10.746;2023-05-02T05:25:37;27.20;;;5.13;;
13163;SDS011;6647;53.688;10.746;2023-05-02T05:26:59;20.33;;;6.15;;
13163;SDS011;6647;53.688;10.746;2023-05-02T05:28:20;20.65;;;5.60;;
13163;SDS011;6647;53.688;10.746;2023-05-02T05:29:41;24.58;;;5.13;;
13163;SDS011;6647;53.688;10.746;2023-05-02T05:31:08;20.73;;;5.47;;
13163;SDS011;6647;53.688;10.746;2023-05-02T05:32:33;28.27;;;6.57;;
13163;SDS011;6647;53.688;10.746;2023-05-02T05:38:31;18.63;;;5.57;;
13163;SDS011;6647;53.688;10.746;2023-05-02T05:39:54;29.02;;;6.30;;
13163;SDS011;6647;53.688;10.746;2023-05-02T05:41:15;35.25;;;6.45;;
13163;SDS011;6647;53.688;10.746;2023-05-02T05:42:36;20.92;;;5.70;;
13163;SDS011;6647;53.688;10.746;2023-05-02T05:43:57;19.10;;;6.30;;
13163;SDS011;6647;53.688;10.746;2023-05-02T05:45:18;28.25;;;6.43;;
13163;SDS011;6647;53.688;10.746;2023-05-02T05:46:39;13.25;;;5.55;;
13163;SDS011;6647;53.688;10.746;2023-05-02T05:48:00;22.60;;;5.10;;
13163;SDS011;6647;53.688;10.746;2023-05-02T05:49:21;19.58;;;5.40;;
13163;SDS011;6647;53.688;10.746;2023-05-02T05:50:43;21.50;;;5.10;;
13163;SDS011;6647;53.688;10.746;2023-05-02T05:52:04;18.80;;;5.30;;
13163;SDS011;6647;53.688;10.746;2023-05-02T05:53:25;20.33;;;5.93;;
13163;SDS011;6647;53.688;10.746;2023-05-02T05:54:46;12.38;;;4.25;;
13163;SDS011;6647;53.688;10.746;2023-05-02T05:56:07;12.93;;;4.47;;
13163;SDS011;6647;53.688;10.746;2023-05-02T05:57:32;11.82;;;4.32;;
13163;SDS011;6647;53.688;10.746;2023-05-02T05:58:53;8.43;;;3.45;;
13163;SDS011;6647;53.688;10.746;2023-05-02T06:00:14;12.90;;;3.50;;
13163;SDS011;6647;53.688;10.746;2023-05-02T06:01:36;13.15;;;3.42;;
13163;SDS011;6647;53.688;10.746;2023-05-02T06:02:57;8.50;;;2.90;;
13163;SDS011;6647;53.688;10.746;2023-05-02T06:04:18;10.40;;;3.35;;
13163;SDS011;6647;53.688;10.746;2023-05-02T06:05:39;17.67;;;3.83;;
13163;SDS011;6647;53.688;10.746;2023-05-02T06:07:00;10.95;;;3.47;;
13163;SDS011;6647;53.688;10.746;2023-05-02T06:08:21;13.70;;;3.28;;
13163;SDS011;6647;53.688;10.746;2023-05-02T06:09:42;10.80;;;2.95;;
13163;SDS011;6647;53.688;10.746;2023-05-02T06:11:07;12.80;;;3.22;;
13163;SDS011;6647;53.688;10.746;2023-05-02T06:12:29;16.83;;;3.22;;
13163;SDS011;6647;53.688;10.746;2023-05-02T06:13:51;13.18;;;3.20;;
13163;SDS011;6647;53.688;10.746;2023-05-02T06:15:12;12.00;;;3.35;;
13163;SDS011;6647;53.688;10.746;2023-05-02T06:16:33;12.00;;;3.10;;
13163;SDS011;6647;53.688;10.746;2023-05-02T06:17:54;9.82;;;2.85;;
13163;SDS011;6647;53.688;10.746;2023-05-02T06:19:15;11.38;;;3.53;;
13163;SDS011;6647;53.688;10.746;2023-05-02T06:20:36;12.20;;;3.08;;
13163;SDS011;6647;53.688;10.746;2023-05-02T06:21:57;11.43;;;2.67;;
13163;SDS011;6647;53.688;10.746;2023-05-02T06:23:18;7.57;;;3.05;;
13163;SDS011;6647;53.688;10.746;2023-05-02T06:24:39;11.38;;;3.20;;
13163;SDS011;6647;53.688;10.746;2023-05-02T06:26:00;5.60;;;2.30;;
13163;SDS011;6647;53.688;10.746;2023-05-02T06:27:22;18.90;;;3.33;;
13163;SDS011;6647;53.688;10.746;2023-05-02T06:28:44;14.52;;;3.85;;
13163;SDS011;6647;53.688;10.746;2023-05-02T06:30:05;13.73;;;5.07;;
13163;SDS011;6647;53.688;10.746;2023-05-02T06:31:26;12.07;;;3.60;;
13163;SDS011;6647;53.688;10.746;2023-05-02T06:32:47;10.88;;;3.50;;
13163;SDS011;6647;53.688;10.746;2023-05-02T06:34:08;10.95;;;3.15;;
13163;SDS011;6647;53.688;10.746;2023-05-02T06:35:29;13.88;;;2.67;;
13163;SDS011;6647;53.688;10.746;2023-05-02T06:36:53;9.95;;;3.05;;
13163;SDS011;6647;53.688;10.746;2023-05-02T06:38:15;11.80;;;3.17;;
13163;SDS011;6647;53.688;10.746;2023-05-02T06:39:37;14.38;;;3.55;;
13163;SDS011;6647;53.688;10.746;2023-05-02T06:40:58;19.50;;;3.80;;
13163;SDS011;6647;53.688;10.746;2023-05-02T06:42:19;9.63;;;3.30;;
13163;SDS011;6647;53.688;10.746;2023-05-02T06:43:40;12.00;;;3.00;;
13163;SDS011;6647;53.688;10.746;2023-05-02T06:45:01;6.28;;;2.40;;
13163;SDS011;6647;53.688;10.746;2023-05-02T06:46:22;4.57;;;2.60;;
13163;SDS011;6647;53.688;10.746;2023-05-02T06:48:03;10.75;;;3.28;;
13163;SDS011;6647;53.688;10.746;2023-05-02T06:49:24;14.07;;;3.20;;
13163;SDS011;6647;53.688;10.746;2023-05-02T06:50:46;13.82;;;3.20;;
13163;SDS011;6647;53.688;10.746;2023-05-02T06:52:07;11.02;;;3.20;;
13163;SDS011;6647;53.688;10.746;2023-05-02T06:53:28;11.18;;;2.83;;
13163;SDS011;6647;53.688;10.746;2023-05-02T06:54:49;12.13;;;3.10;;
13163;SDS011;6647;53.688;10.746;2023-05-02T06:56:10;9.57;;;2.80;;
13163;SDS011;6647;53.688;10.746;2023-05-02T06:57:32;11.00;;;2.70;;
13163;SDS011;6647;53.688;10.746;2023-05-02T06:58:53;9.45;;;2.88;;
13163;SDS011;6647;53.688;10.746;2023-05-02T07:00:17;15.98;;;3.70;;
13163;SDS011;6647;53.688;10.746;2023-05-02T07:01:38;7.22;;;3.25;;
13163;SDS011;6647;53.688;10.746;2023-05-02T07:02:59;8.05;;;3.95;;
13163;SDS011;6647;53.688;10.746;2023-05-02T07:04:20;16.88;;;3.03;;
13163;SDS011;6647;53.688;10.746;2023-05-02T07:05:41;11.55;;;3.00;;
13163;SDS011;6647;53.688;10.746;2023-05-02T07:07:02;14.68;;;3.03;;
13163;SDS011;6647;53.688;10.746;2023-05-02T07:08:23;9.88;;;2.85;;
13163;SDS011;6647;53.688;10.746;2023-05-02T07:09:44;11.93;;;3.47;;
13163;SDS011;6647;53.688;10.746;2023-05-02T07:11:05;9.15;;;2.75;;
13163;SDS011;6647;53.688;10.746;2023-05-02T07:12:26;9.57;;;3.25;;
13163;SDS011;6647;53.688;10.746;2023-05-02T07:13:48;9.95;;;3.20;;
13163;SDS011;6647;53.688;10.746;2023-05-02T07:15:09;10.02;;;3.97;;
13163;SDS011;6647;53.688;10.746;2023-05-02T07:16:30;13.98;;;3.42;;
13163;SDS011;6647;53.688;10.746;2023-05-02T07:17:51;6.72;;;2.60;;
13163;SDS011;6647;53.688;10.746;2023-05-02T07:19:12;8.48;;;3.10;;
13163;SDS011;6647;53.688;10.746;2023-05-02T07:20:33;12.73;;;2.92;;
13163;SDS011;6647;53.688;10.746;2023-05-02T07:21:54;9.70;;;3.10;;
13163;SDS011;6647;53.688;10.746;2023-05-02T07:23:15;12.05;;;3.40;;
13163;SDS011;6647;53.688;10.746;2023-05-02T07:24:39;9.32;;;3.25;;
13163;SDS011;6647;53.688;10.746;2023-05-02T07:26:06;7.72;;;3.05;;
13163;SDS011;6647;53.688;10.746;2023-05-02T07:27:28;8.10;;;3.63;;
13163;SDS011;6647;53.688;10.746;2023-05-02T07:28:49;15.60;;;4.50;;
13163;SDS011;6647;53.688;10.746;2023-05-02T07:30:10;15.70;;;3.17;;
13163;SDS011;6647;53.688;10.746;2023-05-02T07:31:31;11.23;;;2.83;;
13163;SDS011;6647;53.688;10.746;2023-05-02T07:32:52;7.05;;;2.75;;
13163;SDS011;6647;53.688;10.746;2023-05-02T07:34:13;8.38;;;3.90;;
13163;SDS011;6647;53.688;10.746;2023-05-02T07:35:34;13.60;;;2.95;;
13163;SDS011;6647;53.688;10.746;2023-05-02T07:36:55;3.67;;;2.35;;
13163;SDS011;6647;53.688;10.746;2023-05-02T07:38:16;10.82;;;3.70;;
13163;SDS011;6647;53.688;10.746;2023-05-02T07:39:37;8.63;;;3.03;;
13163;SDS011;6647;53.688;10.746;2023-05-02T07:40:59;7.45;;;2.97;;
13163;SDS011;6647;53.688;10.746;2023-05-02T07:42:20;10.32;;;3.00;;
13163;SDS011;6647;53.688;10.746;2023-05-02T07:43:41;11.90;;;2.58;;
13163;SDS011;6647;53.688;10.746;2023-05-02T07:45:01;9.60;;;2.33;;
13163;SDS011;6647;53.688;10.746;2023-05-02T07:46:23;7.20;;;2.80;;
13163;SDS011;6647;53.688;10.746;2023-05-02T07:47:44;12.82;;;2.40;;
13163;SDS011;6647;53.688;10.746;2023-05-02T07:49:06;9.75;;;2.20;;
13163;SDS011;6647;53.688;10.746;2023-05-02T07:50:27;11.93;;;3.15;;
13163;SDS011;6647;53.688;10.746;2023-05-02T07:51:48;5.97;;;2.50;;
13163;SDS011;6647;53.688;10.746;2023-05-02T07:53:10;8.88;;;2.55;;
13163;SDS011;6647;53.688;10.746;2023-05-02T07:54:31;14.15;;;2.08;;
13163;SDS011;6647;53.688;10.746;2023-05-02T07:55:52;9.88;;;2.85;;
13163;SDS011;6647;53.688;10.746;2023-05-02T07:57:12;7.55;;;2.30;;
13163;SDS011;6647;53.688;10.746;2023-05-02T07:58:34;17.88;;;2.65;;
13163;SDS011;6647;53.688;10.746;2023-05-02T07:59:56;3.67;;;2.50;;
13163;SDS011;6647;53.688;10.746;2023-05-02T08:01:17;10.80;;;2.30;;
13163;SDS011;6647;53.688;10.746;2023-05-02T08:02:38;7.07;;;2.97;;
13163;SDS011;6647;53.688;10.746;2023-05-02T08:04:00;6.13;;;1.90;;
13163;SDS011;6647;53.688;10.746;2023-05-02T08:05:21;6.38;;;2.30;;
13163;SDS011;6647;53.688;10.746;2023-05-02T08:06:43;8.70;;;2.53;;
13163;SDS011;6647;53.688;10.746;2023-05-02T08:08:04;5.22;;;2.05;;
13163;SDS011;6647;53.688;10.746;2023-05-02T08:09:25;5.07;;;2.90;;
13163;SDS011;6647;53.688;10.746;2023-05-02T08:10:46;6.15;;;2.00;;
13163;SDS011;6647;53.688;10.746;2023-05-02T08:12:07;11.70;;;3.97;;
13163;SDS011;6647;53.688;10.746;2023-05-02T08:13:28;5.78;;;2.25;;
13163;SDS011;6647;53.688;10.746;2023-05-02T08:14:49;11.43;;;2.30;;
13163;SDS011;6647;53.688;10.746;2023-05-02T08:16:10;10.98;;;2.55;;
13163;SDS011;6647;53.688;10.746;2023-05-02T08:17:31;8.15;;;3.15;;
13163;SDS011;6647;53.688;10.746;2023-05-02T08:18:52;7.43;;;2.55;;
13163;SDS011;6647;53.688;10.746;2023-05-02T08:20:12;11.65;;;2.80;;
13163;SDS011;6647;53.688;10.746;2023-05-02T08:21:33;5.68;;;2.28;;
13163;SDS011;6647;53.688;10.746;2023-05-02T08:22:54;7.13;;;2.15;;
13163;SDS011;6647;53.688;10.746;2023-05-02T08:24:15;5.22;;;2.45;;
13163;SDS011;6647;53.688;10.746;2023-05-02T08:25:36;5.70;;;2.45;;
13163;SDS011;6647;53.688;10.746;2023-05-02T08:26:57;15.13;;;3.38;;
13163;SDS011;6647;53.688;10.746;2023-05-02T08:28:18;9.32;;;2.28;;
13163;SDS011;6647;53.688;10.746;2023-05-02T08:29:39;7.18;;;2.40;;